Time;durP1;ratioP1;P1;durP2;ratioP2;P2;SDS_P1;SDS_P2;PMS_P1;PMS_P2;Temp;Humidity;BMP_temperature;BMP_pressure;BME280_temperature;BME280_humidity;BME280_pressure;Samples;Min_cycle;Max_cycle;Signal;HPM_P1;HPM_P2
2022/03/07 00:02:14;;;;;;;3.72;1.70;;;6.80;55.00;;;;;;5111644;28;20026;-77
2022/03/07 00:04:39;;;;;;;3.33;1.77;;;6.80;55.00;;;;;;5111541;28;20478;-80
2022/03/07 00:07:06;;;;;;;4.32;1.80;;;6.80;55.00;;;;;;5111470;28;20035;-80
2022/03/07 00:09:32;;;;;;;3.33;1.70;;;6.80;55.10;;;;;;5111677;28;20247;-80
2022/03/07 00:11:58;;;;;;;5.55;1.98;;;6.70;54.90;;;;;;5111933;28;20027;-77
2022/03/07 00:14:24;;;;;;;5.90;1.60;;;6.70;54.90;;;;;;5111670;28;20586;-78
2022/03/07 00:16:50;;;;;;;3.67;1.20;;;6.60;54.80;;;;;;5111846;28;20015;-77
2022/03/07 00:19:16;;;;;;;2.28;1.60;;;6.60;54.80;;;;;;5092976;28;20072;-78
2022/03/07 00:21:42;;;;;;;4.10;1.80;;;6.60;54.80;;;;;;5111405;28;20069;-78
2022/03/07 00:24:08;;;;;;;5.57;2.20;;;6.60;54.90;;;;;;5111518;28;20028;-77
2022/03/07 00:26:35;;;;;;;2.13;1.35;;;6.60;55.50;;;;;;5110661;28;20440;-76
2022/03/07 00:29:02;;;;;;;3.95;1.83;;;6.50;54.70;;;;;;5110519;28;20055;-76
2022/03/07 00:31:28;;;;;;;2.90;1.05;;;6.50;54.80;;;;;;5110552;28;20027;-77
2022/03/07 00:33:54;;;;;;;6.38;2.08;;;6.50;54.80;;;;;;5110827;28;20054;-77
2022/03/07 00:36:21;;;;;;;3.22;1.83;;;6.50;54.80;;;;;;5110633;28;20063;-77
2022/03/07 00:38:48;;;;;;;3.58;1.60;;;6.50;54.80;;;;;;5110791;28;20038;-77
2022/03/07 00:41:15;;;;;;;4.68;1.70;;;6.50;54.90;;;;;;5094624;28;20059;-77
2022/03/07 00:43:41;;;;;;;3.33;1.40;;;6.50;54.90;;;;;;5095043;28;20414;-78
2022/03/07 00:46:08;;;;;;;3.28;1.67;;;6.40;54.70;;;;;;5093979;28;20086;-78
2022/03/07 00:48:34;;;;;;;4.18;1.65;;;6.40;54.70;;;;;;5092767;28;20024;-77
2022/03/07 00:51:00;;;;;;;4.30;1.80;;;6.40;54.70;;;;;;5093054;28;20039;-77
2022/03/07 00:53:27;;;;;;;4.43;1.77;;;6.40;54.70;;;;;;5110706;28;20019;-77
2022/03/07 00:55:54;;;;;;;4.57;1.83;;;6.40;54.70;;;;;;5092399;28;20545;-77
2022/03/07 00:58:22;;;;;;;3.63;1.63;;;6.40;54.70;;;;;;5088407;28;20028;-78
2022/03/07 01:00:49;;;;;;;6.10;1.67;;;6.40;54.70;;;;;;5072000;28;20076;-77
2022/03/07 01:03:17;;;;;;;4.43;2.03;;;6.30;54.50;;;;;;5090472;28;20059;-77
2022/03/07 01:05:46;;;;;;;5.18;1.50;;;6.30;54.50;;;;;;5071525;28;20387;-78
2022/03/07 01:08:12;;;;;;;4.97;1.95;;;6.30;54.50;;;;;;5089957;28;20134;-78
2022/03/07 01:10:38;;;;;;;2.42;1.42;;;6.30;54.60;;;;;;5071118;28;20070;-78
2022/03/07 01:13:06;;;;;;;4.72;1.90;;;6.30;54.50;;;;;;5071877;28;20028;-77
2022/03/07 01:15:32;;;;;;;5.28;1.83;;;6.30;54.60;;;;;;5089406;28;20039;-77
2022/03/07 01:17:59;;;;;;;3.03;1.67;;;6.30;54.60;;;;;;5071714;28;20432;-77
2022/03/07 01:20:28;;;;;;;3.55;1.88;;;6.30;54.60;;;;;;5091546;28;20084;-77
2022/03/07 01:22:56;;;;;;;4.95;1.88;;;6.30;54.60;;;;;;5091996;28;20028;-78
2022/03/07 01:25:23;;;;;;;5.05;2.08;;;6.30;54.60;;;;;;5091278;28;20644;-78
2022/03/07 01:27:49;;;;;;;3.33;1.52;;;6.30;54.60;;;;;;5092076;28;20111;-78
2022/03/07 01:30:15;;;;;;;2.20;1.77;;;6.30;54.50;;;;;;5109496;28;20024;-77
2022/03/07 01:32:41;;;;;;;3.67;1.88;;;6.30;54.50;;;;;;5109619;28;20066;-78
2022/03/07 01:35:07;;;;;;;2.42;1.40;;;6.30;54.50;;;;;;5109525;28;20113;-78
2022/03/07 01:37:34;;;;;;;5.35;1.42;;;6.30;55.00;;;;;;5109802;28;20079;-77
2022/03/07 01:40:00;;;;;;;4.20;1.30;;;6.30;54.50;;;;;;5090931;28;20471;-78
2022/03/07 01:42:26;;;;;;;4.00;1.63;;;6.30;54.40;;;;;;5091388;28;20028;-77
2022/03/07 01:44:53;;;;;;;4.95;1.90;;;6.40;54.60;;;;;;5091400;28;20031;-77
2022/03/07 01:47:19;;;;;;;3.70;1.90;;;6.30;54.40;;;;;;5109055;28;20383;-78
2022/03/07 01:49:45;;;;;;;4.38;1.85;;;6.40;54.60;;;;;;5091216;28;20046;-78
2022/03/07 01:52:13;;;;;;;5.13;1.77;;;6.40;54.50;;;;;;5109155;28;20028;-77
2022/03/07 01:54:40;;;;;;;4.72;1.67;;;6.40;54.80;;;;;;5090968;28;20515;-77
2022/03/07 01:57:06;;;;;;;4.78;2.08;;;6.40;54.60;;;;;;5091192;28;20118;-77
2022/03/07 01:59:35;;;;;;;5.38;1.40;;;6.40;54.60;;;;;;5090696;28;20039;-77
2022/03/07 02:02:02;;;;;;;5.85;1.63;;;6.30;54.40;;;;;;5091118;28;20386;-77
2022/03/07 02:04:28;;;;;;;3.83;1.38;;;6.30;54.30;;;;;;5091341;28;20023;-78
2022/03/07 02:06:55;;;;;;;4.95;1.85;;;6.40;54.50;;;;;;5091384;28;20019;-77
2022/03/07 02:09:22;;;;;;;5.07;1.92;;;6.40;54.50;;;;;;5090544;28;20129;-79
2022/03/07 02:11:50;;;;;;;3.10;1.40;;;6.40;54.60;;;;;;5090821;28;20036;-77
2022/03/07 02:14:24;;;;;;;3.97;1.80;;;6.40;54.50;;;;;;5108590;28;20114;-76
2022/03/07 02:16:54;;;;;;;4.80;1.85;;;6.40;54.50;;;;;;5090558;28;20051;-78
2022/03/07 02:19:20;;;;;;;3.72;1.52;;;6.40;54.50;;;;;;5096812;28;20536;-78
2022/03/07 02:21:48;;;;;;;2.42;1.50;;;6.40;54.50;;;;;;5070149;28;20552;-79
2022/03/07 02:24:35;;;;;;;4.53;1.75;;;6.40;54.50;;;;;;5072754;28;20103;-78
2022/03/07 02:27:09;;;;;;;3.72;1.50;;;6.40;54.40;;;;;;5069986;28;20020;-78
2022/03/07 02:29:36;;;;;;;5.22;1.75;;;6.40;54.40;;;;;;5070031;28;20479;-78
2022/03/07 02:32:14;;;;;;;3.40;1.33;;;6.40;54.40;;;;;;5055460;28;20024;-77
2022/03/07 02:34:44;;;;;;;3.33;1.33;;;6.40;54.30;;;;;;5070621;28;20059;-77
2022/03/07 02:37:11;;;;;;;2.58;1.27;;;6.40;54.30;;;;;;5070343;28;20119;-77
2022/03/07 02:39:56;;;;;;;2.38;1.38;;;6.40;54.30;;;;;;5070104;28;20032;-78
2022/03/07 02:42:24;;;;;;;3.67;1.38;;;6.40;54.30;;;;;;5069943;28;20110;-78
2022/03/07 02:44:50;;;;;;;2.42;1.48;;;6.40;54.20;;;;;;5070181;28;20032;-78
2022/03/07 02:47:16;;;;;;;4.43;1.70;;;6.40;54.20;;;;;;5068406;28;20443;-78
2022/03/07 02:49:43;;;;;;;4.80;1.73;;;6.40;54.20;;;;;;5069538;28;20035;-78
2022/03/07 02:52:10;;;;;;;4.50;2.22;;;6.40;54.20;;;;;;5069547;28;20067;-78
2022/03/07 02:54:38;;;;;;;4.13;1.83;;;6.50;54.40;;;;;;5070364;28;20062;-77
2022/03/07 02:57:05;;;;;;;3.42;1.50;;;6.40;54.20;;;;;;5070742;28;20120;-77
2022/03/07 02:59:31;;;;;;;5.57;1.80;;;6.50;54.40;;;;;;5070613;28;20044;-78
2022/03/07 03:01:56;;;;;;;3.30;1.35;;;6.40;54.20;;;;;;5071139;28;20025;-78
2022/03/07 03:04:22;;;;;;;3.90;1.50;;;6.50;54.40;;;;;;5073337;28;20036;-77
2022/03/07 03:06:48;;;;;;;6.00;1.98;;;6.40;54.20;;;;;;5072852;28;20112;-77
2022/03/07 03:09:14;;;;;;;4.43;1.25;;;6.40;54.20;;;;;;5071934;28;20464;-77
2022/03/07 03:11:40;;;;;;;3.38;1.20;;;6.50;54.40;;;;;;5072084;28;20399;-77
2022/03/07 03:14:06;;;;;;;3.50;1.60;;;6.50;54.40;;;;;;5070821;28;20441;-77
2022/03/07 03:16:33;;;;;;;5.85;1.83;;;6.40;54.20;;;;;;5070552;28;20025;-77
2022/03/07 03:18:59;;;;;;;3.20;1.73;;;6.50;54.40;;;;;;5070695;28;20047;-78
2022/03/07 03:21:24;;;;;;;3.83;2.13;;;6.50;54.30;;;;;;5070331;28;20463;-77
2022/03/07 03:23:50;;;;;;;2.88;1.50;;;6.50;54.30;;;;;;5070531;28;20471;-77
2022/03/07 03:26:17;;;;;;;3.15;1.38;;;6.50;54.30;;;;;;5069883;28;20051;-77
2022/03/07 03:28:43;;;;;;;2.03;1.38;;;6.50;54.30;;;;;;5068815;28;20035;-77
2022/03/07 03:31:11;;;;;;;4.68;1.42;;;6.50;54.30;;;;;;5070195;28;20028;-77
2022/03/07 03:33:42;;;;;;;4.60;2.17;;;6.50;54.30;;;;;;5070026;28;20069;-78
2022/03/07 03:36:08;;;;;;;3.50;1.60;;;6.50;54.30;;;;;;5070392;28;20036;-77
2022/03/07 03:38:34;;;;;;;4.15;2.00;;;6.50;54.20;;;;;;5070191;28;20032;-78
2022/03/07 03:41:00;;;;;;;6.65;1.38;;;6.50;54.20;;;;;;5070035;28;20476;-77
2022/03/07 03:43:26;;;;;;;2.85;1.30;;;6.50;54.20;;;;;;5070068;28;20056;-77
2022/03/07 03:45:52;;;;;;;2.95;1.33;;;6.50;54.20;;;;;;5071619;28;20033;-77
2022/03/07 03:48:18;;;;;;;3.05;1.63;;;6.50;54.20;;;;;;5090214;28;20059;-77
2022/03/07 03:50:44;;;;;;;3.90;1.30;;;6.50;54.20;;;;;;5072433;28;20067;-77
2022/03/07 03:53:10;;;;;;;5.28;1.42;;;6.50;54.20;;;;;;5071980;28;20052;-77
2022/03/07 03:55:36;;;;;;;5.78;2.10;;;6.50;54.20;;;;;;5088895;28;20130;-77
2022/03/07 03:58:01;;;;;;;1.92;1.35;;;6.50;54.20;;;;;;5090371;28;20074;-77
2022/03/07 04:00:28;;;;;;;2.75;1.20;;;6.50;54.20;;;;;;5089723;28;20028;-77
2022/03/07 04:02:54;;;;;;;2.60;1.30;;;6.50;54.20;;;;;;5090486;28;20051;-77
2022/03/07 04:05:20;;;;;;;2.35;1.35;;;6.40;54.00;;;;;;5089952;28;20062;-78
2022/03/07 04:07:47;;;;;;;2.28;1.38;;;6.50;54.20;;;;;;5072187;28;20069;-78
2022/03/07 04:10:14;;;;;;;2.95;1.45;;;6.50;54.20;;;;;;5090505;28;20028;-78
2022/03/07 04:12:41;;;;;;;2.00;1.20;;;6.40;54.00;;;;;;5090251;28;20187;-78
2022/03/07 04:15:07;;;;;;;4.97;1.67;;;6.40;54.00;;;;;;5090092;28;20044;-79
2022/03/07 04:17:37;;;;;;;2.67;1.48;;;6.50;54.20;;;;;;5090093;28;20025;-78
2022/03/07 04:20:04;;;;;;;2.85;1.40;;;6.50;54.20;;;;;;5090021;28;20119;-78
2022/03/07 04:22:30;;;;;;;3.20;1.60;;;6.50;54.30;;;;;;5089951;28;20035;-78
2022/03/07 04:24:55;;;;;;;2.97;1.52;;;6.50;54.20;;;;;;5071824;28;20431;-79
2022/03/07 04:27:21;;;;;;;5.90;2.00;;;6.50;54.20;;;;;;5090194;28;20043;-78
2022/03/07 04:29:48;;;;;;;4.05;1.20;;;6.50;54.20;;;;;;5090002;28;20498;-77
2022/03/07 04:32:13;;;;;;;3.40;1.60;;;6.50;54.20;;;;;;5090254;28;20041;-77
2022/03/07 04:34:39;;;;;;;1.95;1.80;;;6.50;54.20;;;;;;5071654;28;20044;-77
2022/03/07 04:37:05;;;;;;;1.55;1.10;;;6.50;54.20;;;;;;5089888;28;20017;-78
2022/03/07 04:39:31;;;;;;;2.60;1.52;;;6.50;54.20;;;;;;5089952;28;20178;-78
2022/03/07 04:41:57;;;;;;;4.68;1.67;;;6.50;54.20;;;;;;5090429;28;20455;-77
2022/03/07 04:44:23;;;;;;;2.70;1.00;;;6.50;54.20;;;;;;5071908;28;20020;-77
2022/03/07 04:46:49;;;;;;;5.07;1.40;;;6.50;54.20;;;;;;5091842;28;20129;-77
2022/03/07 04:49:15;;;;;;;2.33;1.33;;;6.50;54.20;;;;;;5093757;28;20150;-78
2022/03/07 04:51:45;;;;;;;4.45;1.75;;;6.50;54.20;;;;;;5093400;28;20086;-78
2022/03/07 04:54:12;;;;;;;4.68;1.40;;;6.50;54.20;;;;;;5093354;28;20031;-77
2022/03/07 04:56:43;;;;;;;3.65;1.65;;;6.50;54.80;;;;;;5093673;28;20115;-78
2022/03/07 04:59:12;;;;;;;2.45;1.10;;;6.40;54.00;;;;;;5075731;28;20023;-78
2022/03/07 05:01:38;;;;;;;2.63;1.40;;;6.40;54.00;;;;;;5093323;28;20082;-81
2022/03/07 05:04:05;;;;;;;2.30;1.15;;;6.40;54.60;;;;;;5075996;28;20475;-80
2022/03/07 05:06:30;;;;;;;4.05;1.30;;;6.40;54.00;;;;;;5093503;28;20043;-79
2022/03/07 05:08:56;;;;;;;2.65;1.58;;;6.40;54.00;;;;;;5093536;28;20123;-79
2022/03/07 05:11:22;;;;;;;4.63;1.25;;;6.40;54.00;;;;;;5093009;28;20036;-79
2022/03/07 05:13:48;;;;;;;2.38;1.27;;;6.40;54.00;;;;;;5093230;28;20020;-79
2022/03/07 05:16:14;;;;;;;3.53;1.40;;;6.40;54.00;;;;;;5093255;28;20032;-80
2022/03/07 05:18:40;;;;;;;3.13;1.55;;;6.40;54.00;;;;;;5092967;28;20040;-80
2022/03/07 05:21:06;;;;;;;5.38;1.67;;;6.40;54.00;;;;;;5093077;28;20039;-80
2022/03/07 05:23:32;;;;;;;1.95;1.25;;;6.50;54.20;;;;;;5094707;28;20483;-80
2022/03/07 05:25:58;;;;;;;1.88;1.17;;;6.40;54.00;;;;;;5095415;28;20396;-79
2022/03/07 05:28:24;;;;;;;2.72;1.13;;;6.50;54.20;;;;;;5094597;28;20078;-80
2022/03/07 05:30:49;;;;;;;4.07;1.20;;;6.50;54.20;;;;;;5093104;28;20012;-79
2022/03/07 05:33:15;;;;;;;3.88;1.40;;;6.50;54.20;;;;;;5093022;28;20510;-79
2022/03/07 05:35:41;;;;;;;3.53;1.05;;;6.50;54.20;;;;;;5092468;28;20040;-80
2022/03/07 05:38:08;;;;;;;4.53;1.45;;;6.50;54.20;;;;;;5092702;28;20056;-80
2022/03/07 05:40:34;;;;;;;3.15;1.30;;;6.50;54.20;;;;;;5074390;28;20082;-81
2022/03/07 05:43:00;;;;;;;3.15;1.25;;;6.50;54.20;;;;;;5093301;28;20039;-82
2022/03/07 05:45:26;;;;;;;3.45;1.40;;;6.50;54.10;;;;;;5092964;28;20024;-82
2022/03/07 05:47:52;;;;;;;2.25;1.00;;;6.40;53.90;;;;;;5083772;28;20415;-78
2022/03/07 05:50:18;;;;;;;3.50;1.27;;;6.40;53.90;;;;;;5069071;28;20027;-78
2022/03/07 05:52:44;;;;;;;4.65;1.35;;;6.50;54.20;;;;;;5068825;28;20033;-79
2022/03/07 05:55:10;;;;;;;1.60;0.90;;;6.40;54.00;;;;;;5068221;28;20036;-79
2022/03/07 05:57:37;;;;;;;5.47;1.30;;;6.50;54.10;;;;;;5073320;28;20386;-78
2022/03/07 06:00:09;;;;;;;6.60;1.23;;;6.50;54.10;;;;;;5088651;28;20079;-76
2022/03/07 06:02:35;;;;;;;5.18;1.98;;;6.50;54.10;;;;;;5088277;28;20097;-77
2022/03/07 06:05:01;;;;;;;2.17;1.25;;;6.50;54.10;;;;;;5070620;28;20034;-76
2022/03/07 06:07:27;;;;;;;3.10;1.10;;;6.40;53.80;;;;;;5088338;28;20135;-76
2022/03/07 06:09:54;;;;;;;3.92;0.90;;;6.50;54.00;;;;;;5088980;28;20527;-77
2022/03/07 06:12:20;;;;;;;3.72;1.10;;;6.50;54.00;;;;;;5089026;28;20449;-76
2022/03/07 06:14:46;;;;;;;1.80;0.85;;;6.50;54.00;;;;;;5088444;28;20032;-76
2022/03/07 06:17:11;;;;;;;5.53;1.30;;;6.50;54.00;;;;;;5070696;28;20031;-77
2022/03/07 06:19:37;;;;;;;2.40;1.00;;;6.50;54.00;;;;;;5088412;28;20028;-76
2022/03/07 06:22:03;;;;;;;3.72;0.90;;;6.50;54.00;;;;;;5089010;28;20024;-83
2022/03/07 06:24:29;;;;;;;3.35;1.05;;;6.50;53.90;;;;;;5088576;28;20088;-80
2022/03/07 06:26:57;;;;;;;5.00;1.30;;;6.60;54.10;;;;;;5088728;28;20047;-75
2022/03/07 06:29:22;;;;;;;2.60;0.90;;;6.60;54.00;;;;;;5088146;28;20395;-79
2022/03/07 06:31:49;;;;;;;3.13;1.15;;;6.60;54.00;;;;;;5088196;28;20020;-76
2022/03/07 06:34:15;;;;;;;2.38;1.00;;;6.60;53.90;;;;;;5070153;28;20044;-80
2022/03/07 06:36:41;;;;;;;1.55;0.85;;;6.60;53.90;;;;;;5088540;28;20028;-77
2022/03/07 06:39:07;;;;;;;4.32;1.48;;;6.60;53.90;;;;;;5088136;28;20052;-76
2022/03/07 06:41:33;;;;;;;3.58;0.90;;;6.60;53.80;;;;;;5088624;28;20050;-74
2022/03/07 06:44:00;;;;;;;4.68;0.77;;;6.60;53.90;;;;;;5069829;28;20137;-76
2022/03/07 06:46:28;;;;;;;6.03;1.25;;;6.60;53.80;;;;;;5069582;28;20065;-76
2022/03/07 06:48:55;;;;;;;3.47;1.85;;;6.60;53.80;;;;;;5071520;28;20028;-77
2022/03/07 06:51:24;;;;;;;5.65;1.35;;;6.60;53.70;;;;;;5093460;28;20075;-81
2022/03/07 06:53:50;;;;;;;6.30;1.20;;;6.50;53.50;;;;;;5093462;28;20035;-74
2022/03/07 06:56:17;;;;;;;5.75;1.17;;;6.60;53.70;;;;;;5082458;28;20039;-74
2022/03/07 06:58:44;;;;;;;9.13;2.53;;;6.50;53.60;;;;;;5089457;28;20483;-74
2022/03/07 07:01:10;;;;;;;6.20;1.25;;;6.60;54.20;;;;;;5088494;28;20067;-74
2022/03/07 07:03:36;;;;;;;5.78;1.25;;;6.60;54.40;;;;;;5087782;28;20475;-73
2022/03/07 07:06:02;;;;;;;2.03;0.80;;;6.70;54.60;;;;;;5089615;28;20028;-74
2022/03/07 07:08:30;;;;;;;4.40;1.15;;;6.70;54.60;;;;;;5087985;28;20052;-75
2022/03/07 07:10:56;;;;;;;5.57;1.33;;;6.70;54.50;;;;;;5084055;28;20233;-78
2022/03/07 07:13:22;;;;;;;6.45;1.20;;;6.80;54.60;;;;;;5085642;28;20072;-74
2022/03/07 07:15:55;;;;;;;2.78;0.80;;;6.80;54.60;;;;;;5078034;28;20028;-74
2022/03/07 07:18:22;;;;;;;3.30;1.08;;;6.80;54.50;;;;;;5088296;28;20080;-74
2022/03/07 07:20:50;;;;;;;2.72;1.05;;;6.90;54.70;;;;;;5087406;28;20505;-75
2022/03/07 07:23:19;;;;;;;6.93;1.52;;;6.90;54.60;;;;;;5089693;28;20395;-75
2022/03/07 07:25:46;;;;;;;3.85;0.98;;;6.90;54.50;;;;;;5088565;28;20032;-74
2022/03/07 07:28:13;;;;;;;4.50;0.90;;;6.90;54.40;;;;;;5089131;28;20028;-74
2022/03/07 07:30:39;;;;;;;3.40;1.27;;;7.00;54.50;;;;;;5075969;28;20020;-73
2022/03/07 07:33:06;;;;;;;5.93;1.25;;;7.00;54.60;;;;;;5084503;28;20153;-76
2022/03/07 07:35:34;;;;;;;6.18;1.67;;;7.10;55.80;;;;;;5073725;28;20043;-74
2022/03/07 07:38:00;;;;;;;2.72;1.00;;;7.30;56.50;;;;;;5083707;28;20100;-74
2022/03/07 07:40:27;;;;;;;4.80;0.88;;;7.50;57.00;;;;;;5077288;28;20325;-73
2022/03/07 07:42:53;;;;;;;5.72;1.30;;;7.60;57.30;;;;;;5070258;28;20027;-74
2022/03/07 07:45:19;;;;;;;2.55;1.00;;;7.90;58.20;;;;;;5074194;28;20027;-74
2022/03/07 07:47:45;;;;;;;5.07;1.17;;;8.20;58.80;;;;;;5086432;28;20036;-73
2022/03/07 07:50:11;;;;;;;4.03;1.15;;;8.60;59.30;;;;;;5069470;28;20660;-74
2022/03/07 07:52:37;;;;;;;3.17;1.05;;;8.80;59.50;;;;;;5086558;28;20032;-74
2022/03/07 07:55:05;;;;;;;3.67;0.90;;;9.10;59.60;;;;;;5068665;28;20028;-74
2022/03/07 07:57:31;;;;;;;4.43;1.10;;;9.40;59.90;;;;;;5086740;28;20024;-74
2022/03/07 07:59:57;;;;;;;3.80;1.15;;;9.70;60.00;;;;;;5068272;28;20028;-74
2022/03/07 08:02:23;;;;;;;3.10;0.95;;;10.00;60.20;;;;;;5086116;28;20039;-74
2022/03/07 08:04:51;;;;;;;3.67;0.73;;;10.20;60.20;;;;;;5086738;28;20078;-73
2022/03/07 08:07:20;;;;;;;3.60;1.10;;;10.40;60.20;;;;;;5068795;28;20478;-77
2022/03/07 08:09:46;;;;;;;2.13;1.00;;;10.60;60.30;;;;;;5086972;28;20028;-74
2022/03/07 08:12:17;;;;;;;2.45;0.60;;;10.80;60.30;;;;;;5087183;28;20043;-74
2022/03/07 08:14:44;;;;;;;3.15;1.08;;;11.00;60.40;;;;;;5067916;28;20051;-74
2022/03/07 08:17:11;;;;;;;3.22;0.90;;;11.10;60.90;;;;;;5086776;28;20040;-74
2022/03/07 08:19:38;;;;;;;6.53;1.10;;;11.20;60.30;;;;;;5086181;28;20039;-74
2022/03/07 08:22:04;;;;;;;2.22;0.82;;;11.40;60.50;;;;;;5089389;28;20274;-74
2022/03/07 08:24:30;;;;;;;6.38;1.02;;;11.50;60.90;;;;;;5072189;28;20032;-74
2022/03/07 08:26:57;;;;;;;1.65;0.70;;;11.60;60.40;;;;;;5090354;28;20554;-79
2022/03/07 08:29:24;;;;;;;2.10;0.93;;;11.80;60.50;;;;;;5089274;28;20062;-80
2022/03/07 08:31:50;;;;;;;3.42;0.95;;;11.90;60.40;;;;;;5092414;28;20032;-79
2022/03/07 08:34:16;;;;;;;3.80;1.73;;;12.00;60.40;;;;;;5110830;28;20075;-76
2022/03/07 08:36:42;;;;;;;1.27;0.63;;;12.10;60.30;;;;;;5074869;28;20068;-75
2022/03/07 08:39:08;;;;;;;4.13;1.45;;;12.10;60.10;;;;;;5083831;28;20055;-77
2022/03/07 08:41:37;;;;;;;4.30;0.93;;;12.20;60.00;;;;;;5089032;28;20077;-78
2022/03/07 08:44:03;;;;;;;2.50;0.88;;;12.20;59.90;;;;;;5071900;28;20025;-77
2022/03/07 08:46:28;;;;;;;3.53;0.95;;;12.10;59.60;;;;;;5090344;28;20521;-78
2022/03/07 08:48:54;;;;;;;2.15;0.90;;;12.10;59.60;;;;;;5089775;28;20028;-78
2022/03/07 08:51:20;;;;;;;2.30;0.77;;;12.00;59.40;;;;;;5090218;28;20091;-77
2022/03/07 08:53:46;;;;;;;3.22;0.80;;;11.90;59.30;;;;;;5089851;28;20073;-77
2022/03/07 08:56:13;;;;;;;2.10;0.80;;;11.90;59.30;;;;;;5089845;28;20081;-77
2022/03/07 08:58:39;;;;;;;1.92;1.00;;;11.90;59.30;;;;;;5089641;28;20048;-76
2022/03/07 09:01:05;;;;;;;5.13;1.20;;;11.80;59.10;;;;;;5071942;28;20034;-77
2022/03/07 09:03:31;;;;;;;2.78;0.95;;;11.80;59.00;;;;;;5089155;28;20028;-77
2022/03/07 09:05:57;;;;;;;3.58;1.23;;;11.80;59.00;;;;;;5071720;28;20146;-77
2022/03/07 09:08:23;;;;;;;2.13;0.88;;;11.80;58.90;;;;;;5071767;28;20383;-77
2022/03/07 09:10:48;;;;;;;2.28;0.98;;;11.70;58.60;;;;;;5089079;28;20028;-74
2022/03/07 09:13:14;;;;;;;2.85;1.15;;;11.70;58.50;;;;;;5088552;28;20056;-78
2022/03/07 09:15:42;;;;;;;4.80;1.13;;;11.70;58.40;;;;;;5052185;28;20416;-74
2022/03/07 09:18:09;;;;;;;3.78;0.73;;;11.80;58.40;;;;;;5089148;28;20032;-76
2022/03/07 09:20:35;;;;;;;7.22;1.40;;;11.70;58.10;;;;;;5085031;28;20029;-75
2022/03/07 09:23:01;;;;;;;3.28;1.60;;;11.80;58.20;;;;;;5085811;28;20051;-75
2022/03/07 09:25:27;;;;;;;3.03;0.90;;;11.80;58.00;;;;;;5081037;28;20108;-76
2022/03/07 09:27:52;;;;;;;4.53;1.00;;;11.80;57.90;;;;;;5073010;28;20131;-77
2022/03/07 09:30:18;;;;;;;3.38;1.38;;;11.90;57.90;;;;;;5089355;28;20028;-75
2022/03/07 09:32:45;;;;;;;3.60;1.70;;;11.90;57.70;;;;;;5070762;28;20111;-75
2022/03/07 09:35:12;;;;;;;4.40;1.30;;;11.90;57.50;;;;;;5053834;28;20105;-75
2022/03/07 09:37:38;;;;;;;4.07;1.25;;;11.90;57.30;;;;;;5072487;28;20127;-75
2022/03/07 09:40:04;;;;;;;5.00;1.10;;;12.00;57.40;;;;;;5091522;28;20640;-76
2022/03/07 09:42:30;;;;;;;2.53;0.93;;;12.00;57.20;;;;;;5090976;28;20023;-75
2022/03/07 09:44:56;;;;;;;3.72;1.30;;;12.00;57.10;;;;;;5108998;28;20036;-76
2022/03/07 09:47:23;;;;;;;9.65;1.35;;;12.00;57.00;;;;;;5089797;28;20048;-76
2022/03/07 09:49:52;;;;;;;5.47;1.10;;;12.10;56.80;;;;;;5091024;28;20027;-78
2022/03/07 09:52:18;;;;;;;4.82;0.90;;;12.10;56.30;;;;;;5090997;28;20505;-76
2022/03/07 09:54:44;;;;;;;6.75;1.02;;;12.00;56.10;;;;;;5109304;28;20081;-77
2022/03/07 09:57:10;;;;;;;5.78;1.48;;;12.10;56.10;;;;;;5090984;28;20032;-76
2022/03/07 09:59:36;;;;;;;4.57;1.23;;;12.10;55.90;;;;;;5108474;28;20028;-76
2022/03/07 10:02:05;;;;;;;4.97;1.40;;;12.20;55.90;;;;;;5108577;28;20023;-75
2022/03/07 10:04:38;;;;;;;4.13;1.58;;;12.30;55.80;;;;;;5090208;28;20031;-75
2022/03/07 10:07:04;;;;;;;5.07;1.00;;;12.30;55.50;;;;;;5090092;28;20117;-77
2022/03/07 10:09:30;;;;;;;7.03;1.58;;;12.40;55.50;;;;;;5090135;28;20497;-79
2022/03/07 10:12:03;;;;;;;5.82;1.42;;;12.50;55.40;;;;;;5090259;28;20027;-79
2022/03/07 10:14:44;;;;;;;4.50;1.17;;;12.50;55.20;;;;;;5089753;28;20030;-76
2022/03/07 10:17:24;;;;;;;6.15;1.58;;;12.60;55.10;;;;;;5108490;28;20038;-76
2022/03/07 10:19:52;;;;;;;4.40;1.10;;;12.60;55.00;;;;;;5108565;28;20050;-76
2022/03/07 10:22:27;;;;;;;5.28;1.27;;;12.70;55.10;;;;;;5108839;28;20034;-78
2022/03/07 10:25:08;;;;;;;5.80;1.35;;;12.70;54.80;;;;;;5108483;28;20277;-78
2022/03/07 10:27:38;;;;;;;3.00;1.00;;;12.80;54.70;;;;;;5073374;28;20447;-76
2022/03/07 10:30:12;;;;;;;6.55;1.20;;;13.00;54.90;;;;;;5108753;28;20125;-77
2022/03/07 10:32:39;;;;;;;3.92;1.10;;;13.10;54.70;;;;;;5108498;28;20032;-77
2022/03/07 10:35:06;;;;;;;4.03;1.35;;;13.20;54.70;;;;;;5072679;28;20062;-76
2022/03/07 10:37:38;;;;;;;5.55;1.02;;;13.30;54.40;;;;;;5089258;28;20034;-76
2022/03/07 10:40:18;;;;;;;5.80;1.08;;;13.30;53.70;;;;;;5108066;28;20076;-77
2022/03/07 10:42:46;;;;;;;3.97;1.38;;;13.10;52.70;;;;;;5084709;28;20027;-77
2022/03/07 10:45:12;;;;;;;6.40;1.33;;;13.00;52.50;;;;;;5076515;28;20077;-75
2022/03/07 10:47:38;;;;;;;3.38;1.17;;;12.90;52.40;;;;;;5091900;28;20527;-77
2022/03/07 10:50:06;;;;;;;4.00;1.10;;;12.90;52.40;;;;;;5110396;28;20181;-75
2022/03/07 10:52:41;;;;;;;1.70;1.05;;;12.90;52.10;;;;;;5110263;28;20043;-76
2022/03/07 10:55:12;;;;;;;1.20;0.60;;;13.00;52.00;;;;;;5110085;28;20414;-76
2022/03/07 10:57:41;;;;;;;4.85;1.23;;;13.10;52.00;;;;;;5091074;28;20027;-76
2022/03/07 11:00:13;;;;;;;1.73;0.95;;;13.20;51.80;;;;;;5090798;28;20431;-76
2022/03/07 11:02:42;;;;;;;6.20;1.08;;;13.30;51.70;;;;;;5108059;28;20503;-76
2022/03/07 11:05:09;;;;;;;3.60;1.50;;;13.50;51.80;;;;;;5108438;28;20020;-76
2022/03/07 11:07:40;;;;;;;2.35;1.23;;;13.60;51.70;;;;;;5089283;28;20024;-75
2022/03/07 11:10:08;;;;;;;5.15;1.48;;;13.70;51.60;;;;;;5090431;28;20032;-77
2022/03/07 11:12:35;;;;;;;4.80;1.00;;;13.80;51.50;;;;;;5079448;28;20031;-75
2022/03/07 11:15:08;;;;;;;3.03;1.30;;;13.90;51.40;;;;;;5069176;28;20040;-75
2022/03/07 11:17:40;;;;;;;4.38;1.55;;;14.00;51.40;;;;;;5085199;28;20468;-76
2022/03/07 11:20:13;;;;;;;3.67;1.33;;;14.10;51.30;;;;;;5078247;28;20254;-76
2022/03/07 11:22:39;;;;;;;2.75;0.73;;;14.20;51.30;;;;;;5059737;28;20532;-75
2022/03/07 11:25:08;;;;;;;3.53;1.40;;;14.30;51.30;;;;;;5080955;28;20118;-76
2022/03/07 11:27:36;;;;;;;5.00;1.90;;;14.40;51.20;;;;;;5086795;28;20024;-78
2022/03/07 11:30:18;;;;;;;7.20;2.28;;;14.50;51.20;;;;;;5069404;28;20036;-76
2022/03/07 11:32:45;;;;;;;2.55;1.02;;;14.70;51.20;;;;;;5068909;28;20031;-79
2022/03/07 11:35:12;;;;;;;4.88;1.48;;;14.70;51.10;;;;;;5052551;28;20069;-81
2022/03/07 11:37:38;;;;;;;2.95;1.13;;;14.80;51.10;;;;;;5086761;28;20024;-80
2022/03/07 11:40:20;;;;;;;1.52;0.95;;;14.90;51.10;;;;;;5087462;28;20044;-75
2022/03/07 11:42:46;;;;;;;5.78;2.33;;;15.00;50.90;;;;;;5069077;28;20051;-79
2022/03/07 11:45:18;;;;;;;5.05;1.20;;;15.10;51.10;;;;;;5069149;28;20281;-73
2022/03/07 11:47:45;;;;;;;4.10;1.42;;;15.20;50.90;;;;;;5084560;28;20055;-74
2022/03/07 11:50:11;;;;;;;2.88;1.00;;;15.20;50.40;;;;;;5086816;28;20024;-75
2022/03/07 11:52:38;;;;;;;2.60;0.63;;;15.20;50.50;;;;;;5086700;28;20024;-76
2022/03/07 11:55:21;;;;;;;5.65;1.08;;;15.20;50.80;;;;;;5087667;28;20032;-75
2022/03/07 11:57:58;;;;;;;11.63;3.33;;;15.20;51.30;;;;;;5089932;28;20077;-75
2022/03/07 12:00:31;;;;;;;4.47;0.90;;;15.40;52.20;;;;;;5090407;28;20479;-74
2022/03/07 12:02:59;;;;;;;3.70;1.20;;;15.60;53.10;;;;;;5072417;28;20390;-78
2022/03/07 12:05:28;;;;;;;4.47;1.15;;;15.80;53.70;;;;;;5072969;28;20024;-74
2022/03/07 12:08:18;;;;;;;5.40;1.55;;;15.90;54.00;;;;;;5072781;28;20084;-76
2022/03/07 12:10:55;;;;;;;2.65;1.20;;;16.00;54.30;;;;;;5055301;28;20043;-76
2022/03/07 12:13:21;;;;;;;2.78;1.40;;;16.00;54.20;;;;;;5072698;28;20023;-76
2022/03/07 12:15:57;;;;;;;7.05;1.20;;;15.90;54.10;;;;;;5090553;28;20269;-76
2022/03/07 12:18:24;;;;;;;5.25;1.48;;;15.80;54.00;;;;;;5072299;28;20097;-75
2022/03/07 12:20:54;;;;;;;4.18;1.30;;;15.80;54.10;;;;;;5072558;28;20479;-75
2022/03/07 12:23:22;;;;;;;4.13;1.00;;;15.70;54.00;;;;;;5091191;28;20534;-78
2022/03/07 12:25:57;;;;;;;4.50;0.88;;;15.60;53.70;;;;;;5090450;28;20028;-75
2022/03/07 12:28:30;;;;;;;5.25;1.17;;;15.60;53.60;;;;;;5072194;28;20088;-75
2022/03/07 12:30:57;;;;;;;3.30;1.00;;;15.50;53.60;;;;;;5071593;28;20350;-76
2022/03/07 12:33:23;;;;;;;2.88;1.42;;;15.50;53.70;;;;;;5072193;28;20217;-76
2022/03/07 12:36:09;;;;;;;4.82;1.33;;;15.40;53.60;;;;;;5072207;28;20503;-76
2022/03/07 12:38:50;;;;;;;5.03;1.38;;;15.30;53.50;;;;;;5071884;28;20429;-76
2022/03/07 12:41:27;;;;;;;3.65;1.30;;;15.30;53.60;;;;;;5089040;28;20115;-74
2022/03/07 12:43:53;;;;;;;4.03;1.42;;;15.30;53.70;;;;;;5090181;28;20024;-77
2022/03/07 12:46:19;;;;;;;4.28;2.20;;;15.30;53.60;;;;;;5090130;28;20494;-79
2022/03/07 12:48:46;;;;;;;3.53;1.55;;;15.40;53.70;;;;;;5089642;28;20287;-75
2022/03/07 12:51:15;;;;;;;2.40;1.38;;;15.40;53.60;;;;;;5090013;28;20036;-75
2022/03/07 12:53:48;;;;;;;6.40;2.05;;;15.50;53.60;;;;;;5071732;28;20024;-75
2022/03/07 12:56:16;;;;;;;4.43;1.30;;;15.60;53.50;;;;;;5071872;28;20072;-75